Santa Fe, Brazil
Current Conditions -  °F | °C
As of 9:00 PM on Monday 22 Dec 2014 (Local Time) from SBMG Reporting Station
Haze Haze  
Wind Chill: 70°   Ceiling: 700
Heat Index: 70°   Visibility: 0.93mi
Dew Point: 70°   Wind: 1mph
Humidity: 100%   Direction: 140°SE
Pressure: 29.88"   Gusts: NA
Location:  23.04°S, 51.81°W
Report Text: SBMG 222300Z 14001KT 1500 BR SCT002 BKN007 BKN009 21/21 Q1012
Loading
Personal Weather Stations






























Interactive Weather Map New forecast layout! Learn more

10-Day Weather Forecast

Advertisements
Track Severe Weather on mobile